createdAt,value
2019-03-06T00:00:35.290Z,67.04
2019-03-06T00:03:01.856Z,66.79
2019-03-06T00:05:28.423Z,67.10
2019-03-06T00:07:55.288Z,66.93
2019-03-06T00:10:21.900Z,66.90
2019-03-06T00:12:48.459Z,67.00
2019-03-06T00:15:15.066Z,66.41
2019-03-06T00:17:41.635Z,67.12
2019-03-06T00:20:08.242Z,66.99
2019-03-06T00:22:35.035Z,66.75
2019-03-06T00:25:01.622Z,66.83
2019-03-06T00:27:28.212Z,66.77
2019-03-06T00:29:54.829Z,66.37
2019-03-06T00:32:21.386Z,66.25
2019-03-06T00:34:47.998Z,66.79
2019-03-06T00:37:14.751Z,66.30
2019-03-06T00:39:41.383Z,66.61
2019-03-06T00:42:07.958Z,66.82
2019-03-06T00:44:34.571Z,66.57
2019-03-06T00:47:01.146Z,67.18
2019-03-06T00:49:27.768Z,66.84
2019-03-06T00:51:54.419Z,66.39
2019-03-06T00:54:21.007Z,66.69
2019-03-06T00:56:47.591Z,66.16
2019-03-06T00:59:14.190Z,65.86
2019-03-06T01:01:40.793Z,66.88
2019-03-06T01:04:07.469Z,66.51
2019-03-06T01:06:34.042Z,66.81
2019-03-06T01:09:00.651Z,66.36
2019-03-06T01:11:27.229Z,66.27
2019-03-06T01:13:53.919Z,66.18
2019-03-06T01:16:20.531Z,66.48
2019-03-06T01:18:47.097Z,65.96
2019-03-06T01:21:13.672Z,66.66
2019-03-06T01:23:40.271Z,66.33
2019-03-06T01:26:06.849Z,66.00
2019-03-06T01:28:33.420Z,66.20
2019-03-06T01:30:59.995Z,66.46
2019-03-06T01:33:26.610Z,66.37
2019-03-06T01:35:53.193Z,65.93
2019-03-06T01:38:19.760Z,66.15
2019-03-06T01:40:46.325Z,66.00
2019-03-06T01:43:12.957Z,66.18
2019-03-06T01:45:39.536Z,65.52
2019-03-06T01:48:06.107Z,65.89
2019-03-06T01:50:32.695Z,65.61
2019-03-06T01:52:59.268Z,65.49
2019-03-06T01:55:25.859Z,65.29
2019-03-06T01:57:52.434Z,65.67
2019-03-06T02:00:19.023Z,65.07
2019-03-06T02:02:45.679Z,64.98
2019-03-06T02:05:12.258Z,65.01
2019-03-06T02:07:38.844Z,65.21
2019-03-06T02:10:05.416Z,64.90
2019-03-06T02:12:32.020Z,65.07
2019-03-06T02:14:58.590Z,65.43
2019-03-06T02:17:25.242Z,64.78
2019-03-06T02:19:51.817Z,65.28
2019-03-06T02:22:18.415Z,65.24
2019-03-06T02:24:44.986Z,65.11
2019-03-06T02:27:11.588Z,65.31
2019-03-06T02:29:38.159Z,65.34
2019-03-06T02:32:04.795Z,65.43
2019-03-06T02:34:31.641Z,65.29
2019-03-06T02:36:58.258Z,65.31
2019-03-06T02:39:24.827Z,65.49
2019-03-06T02:41:51.430Z,65.39
2019-03-06T02:44:18.075Z,65.40
2019-03-06T02:46:44.730Z,65.40
2019-03-06T02:49:11.575Z,65.24
2019-03-06T02:51:38.178Z,64.97
2019-03-06T02:54:04.744Z,65.05
2019-03-06T02:56:31.337Z,64.83
2019-03-06T02:58:57.917Z,64.90
2019-03-06T03:01:24.518Z,65.21
2019-03-06T03:03:51.113Z,64.75
2019-03-06T03:06:17.730Z,64.87
2019-03-06T03:08:44.288Z,65.09
2019-03-06T03:11:10.866Z,64.66
2019-03-06T03:13:37.434Z,64.74
2019-03-06T03:16:04.002Z,64.84
2019-03-06T03:18:30.589Z,64.73
2019-03-06T03:20:57.330Z,64.51
2019-03-06T03:23:23.906Z,64.48
2019-03-06T03:25:50.478Z,64.60
2019-03-06T03:28:19.723Z,64.21
2019-03-06T03:30:45.361Z,64.49
2019-03-06T03:33:11.937Z,64.38
2019-03-06T03:35:38.770Z,64.32
2019-03-06T03:38:05.342Z,64.20
2019-03-06T03:40:31.927Z,63.97
2019-03-06T03:42:58.498Z,63.80
2019-03-06T03:45:25.075Z,64.04
2019-03-06T03:47:51.721Z,63.94
2019-03-06T03:50:18.299Z,63.76
2019-03-06T03:52:44.924Z,63.88
2019-03-06T03:55:11.484Z,63.56
2019-03-06T03:57:38.073Z,63.58
2019-03-06T04:00:04.672Z,63.73
2019-03-06T04:02:31.287Z,63.67
2019-03-06T04:04:57.853Z,63.49
2019-03-06T04:07:24.787Z,63.12
2019-03-06T04:09:51.354Z,63.11
2019-03-06T04:12:17.948Z,62.83
2019-03-06T04:14:44.523Z,62.69
2019-03-06T04:17:11.134Z,62.74
2019-03-06T04:19:37.725Z,62.80
2019-03-06T04:22:04.311Z,62.91
2019-03-06T04:24:30.876Z,62.85
2019-03-06T04:26:57.467Z,62.73
2019-03-06T04:29:24.032Z,62.72
2019-03-06T04:31:50.650Z,62.75
2019-03-06T04:34:17.223Z,62.74
2019-03-06T04:36:43.832Z,62.46
2019-03-06T04:39:10.476Z,62.32
2019-03-06T04:41:37.051Z,62.16
2019-03-06T04:44:03.626Z,62.23
2019-03-06T04:46:30.195Z,62.03
2019-03-06T04:48:56.776Z,61.77
2019-03-06T04:51:23.357Z,61.82
2019-03-06T04:53:50.200Z,61.65
2019-03-06T04:56:16.780Z,61.43
2019-03-06T04:58:43.337Z,61.27
2019-03-06T05:01:09.905Z,61.23
2019-03-06T05:03:36.479Z,61.24
2019-03-06T05:06:03.060Z,61.38
2019-03-06T05:08:29.806Z,61.14
2019-03-06T05:10:56.387Z,61.09
2019-03-06T05:13:22.956Z,61.04
2019-03-06T05:15:49.531Z,60.92
2019-03-06T05:18:16.105Z,60.65
2019-03-06T05:20:42.679Z,60.87
2019-03-06T05:23:09.454Z,60.72
2019-03-06T05:25:36.303Z,60.72
2019-03-06T05:28:03.000Z,60.66
2019-03-06T05:30:29.573Z,60.52
2019-03-06T05:32:56.136Z,60.59
2019-03-06T05:35:22.709Z,60.49
2019-03-06T05:37:49.327Z,60.50
2019-03-06T05:40:15.896Z,60.45
2019-03-06T05:42:42.468Z,60.41
2019-03-06T05:45:09.039Z,60.44
2019-03-06T05:47:35.616Z,60.32
2019-03-06T05:50:02.190Z,60.46
2019-03-06T05:52:29.147Z,60.35
2019-03-06T05:54:55.783Z,60.41
2019-03-06T05:57:22.351Z,60.18
2019-03-06T05:59:48.919Z,60.34
2019-03-06T06:02:15.515Z,60.02
2019-03-06T06:04:42.126Z,60.12
2019-03-06T06:07:08.868Z,60.05
2019-03-06T06:09:35.457Z,60.46
2019-03-06T06:12:02.036Z,60.23
2019-03-06T06:14:28.617Z,60.53
2019-03-06T06:16:55.702Z,60.25
2019-03-06T06:19:22.386Z,60.37
2019-03-06T06:21:49.241Z,60.52
2019-03-06T06:24:15.852Z,60.44
2019-03-06T06:26:42.436Z,60.23
2019-03-06T06:29:09.045Z,60.58
2019-03-06T06:31:35.626Z,60.45
2019-03-06T06:34:02.237Z,60.36
2019-03-06T06:36:28.904Z,60.51
2019-03-06T06:38:55.607Z,60.25
2019-03-06T06:41:22.176Z,60.62
2019-03-06T06:43:48.892Z,60.37
2019-03-06T06:46:15.463Z,60.61
2019-03-06T06:48:42.045Z,60.22
2019-03-06T06:51:08.897Z,60.46
2019-03-06T06:53:35.474Z,60.13
2019-03-06T06:56:02.077Z,60.02
2019-03-06T06:58:31.586Z,60.00
2019-03-06T07:00:57.283Z,59.55
2019-03-06T07:03:23.863Z,59.51
2019-03-06T07:05:50.462Z,59.24
2019-03-06T07:08:17.039Z,59.12
2019-03-06T07:10:43.628Z,58.85
2019-03-06T07:13:10.189Z,58.52
2019-03-06T07:15:36.782Z,58.31
2019-03-06T07:18:03.346Z,58.09
2019-03-06T07:20:29.950Z,57.69
2019-03-06T07:22:56.516Z,57.23
2019-03-06T07:25:23.093Z,56.90
2019-03-06T07:27:49.707Z,56.60
2019-03-06T07:30:16.285Z,56.27
2019-03-06T07:32:43.261Z,55.96
2019-03-06T07:35:09.830Z,55.24
2019-03-06T07:37:36.426Z,55.31
2019-03-06T07:40:03.034Z,54.93
2019-03-06T07:42:29.636Z,54.68
2019-03-06T07:44:56.248Z,54.31
2019-03-06T07:47:22.823Z,54.12
2019-03-06T07:49:49.405Z,54.21
2019-03-06T07:52:15.983Z,53.60
2019-03-06T07:54:42.579Z,53.80
2019-03-06T07:57:09.167Z,53.26
2019-03-06T07:59:35.765Z,52.86
2019-03-06T08:02:02.346Z,52.13
2019-03-06T08:04:28.960Z,51.36
2019-03-06T08:06:55.525Z,51.32
2019-03-06T08:09:22.158Z,51.31
2019-03-06T08:11:48.735Z,51.11
2019-03-06T08:14:22.018Z,50.72
2019-03-06T08:16:43.922Z,50.47
2019-03-06T08:19:10.524Z,50.44
2019-03-06T08:21:37.103Z,49.93
2019-03-06T08:24:03.722Z,50.07
2019-03-06T08:26:30.318Z,49.50
2019-03-06T08:28:56.898Z,48.94
2019-03-06T08:31:23.469Z,48.28
2019-03-06T08:33:50.048Z,49.07
2019-03-06T08:36:16.620Z,49.21
2019-03-06T08:38:43.201Z,49.26
2019-03-06T08:41:09.793Z,48.16
2019-03-06T08:43:36.414Z,48.82
2019-03-06T08:46:02.981Z,47.95
2019-03-06T08:48:29.566Z,47.20
2019-03-06T08:50:56.166Z,47.45
2019-03-06T08:53:22.737Z,47.44
2019-03-06T08:55:49.369Z,46.79
2019-03-06T08:58:15.971Z,44.22
2019-03-06T09:00:42.592Z,45.04
2019-03-06T09:03:09.162Z,46.12
2019-03-06T09:05:35.744Z,45.95
2019-03-06T09:08:02.335Z,45.50
2019-03-06T09:10:28.894Z,43.85
2019-03-06T09:12:55.469Z,42.30
2019-03-06T09:15:23.820Z,42.01
2019-03-06T09:17:50.333Z,41.46
2019-03-06T09:20:16.916Z,42.04
2019-03-06T09:22:43.519Z,40.39
2019-03-06T09:25:10.376Z,40.76
2019-03-06T09:27:36.973Z,40.25
2019-03-06T09:30:03.567Z,40.96
2019-03-06T09:32:30.302Z,41.42
2019-03-06T09:34:56.943Z,42.19
2019-03-06T09:37:23.517Z,41.76
2019-03-06T09:39:50.288Z,40.46
2019-03-06T09:42:18.486Z,41.26
2019-03-06T09:44:45.628Z,38.55
2019-03-06T09:47:12.208Z,39.16
2019-03-06T09:49:38.817Z,38.54
2019-03-06T09:52:05.406Z,38.22
2019-03-06T09:54:32.199Z,39.41
2019-03-06T09:56:58.847Z,37.20
2019-03-06T09:59:25.534Z,38.53
2019-03-06T10:01:52.159Z,38.52
2019-03-06T10:04:18.725Z,38.39
2019-03-06T10:06:45.311Z,37.21
2019-03-06T10:09:12.093Z,37.88
2019-03-06T10:11:38.678Z,37.04
2019-03-06T10:14:05.287Z,38.85
2019-03-06T10:16:31.873Z,37.68
2019-03-06T10:18:58.580Z,38.21
2019-03-06T10:21:25.761Z,37.06
2019-03-06T10:23:52.641Z,38.38
2019-03-06T10:26:19.534Z,38.00
2019-03-06T10:28:46.128Z,38.51
2019-03-06T10:31:13.147Z,38.73
2019-03-06T10:33:39.819Z,38.43
2019-03-06T10:36:06.756Z,37.59
2019-03-06T10:38:33.413Z,36.17
2019-03-06T10:41:00.080Z,35.01
2019-03-06T10:43:26.669Z,34.56
2019-03-06T10:45:53.357Z,33.83
2019-03-06T10:48:19.924Z,33.58
2019-03-06T10:50:46.547Z,30.62
2019-03-06T10:53:13.175Z,32.39
2019-03-06T10:55:39.943Z,30.27
2019-03-06T10:58:06.675Z,30.49
2019-03-06T11:00:33.329Z,31.66
2019-03-06T11:03:00.308Z,29.00
2019-03-06T11:05:27.064Z,31.21
2019-03-06T11:07:53.923Z,29.54
2019-03-06T11:10:25.141Z,30.39
2019-03-06T11:12:48.794Z,29.60
2019-03-06T11:15:15.422Z,29.26
2019-03-06T11:17:42.225Z,30.67
2019-03-06T11:20:09.139Z,29.63
2019-03-06T11:22:35.785Z,29.01
2019-03-06T11:25:02.353Z,30.87
2019-03-06T11:27:28.948Z,31.06
2019-03-06T11:29:55.750Z,32.17
2019-03-06T11:32:22.353Z,32.37
2019-03-06T11:34:48.925Z,31.83
2019-03-06T11:37:15.562Z,31.55
2019-03-06T11:39:42.225Z,31.01
2019-03-06T11:42:08.845Z,31.16
2019-03-06T11:44:35.479Z,30.71
2019-03-06T11:47:02.081Z,30.70
2019-03-06T11:49:28.688Z,31.26
2019-03-06T11:51:55.495Z,30.15
2019-03-06T11:54:22.079Z,30.67
2019-03-06T11:56:48.689Z,29.43
2019-03-06T11:59:15.340Z,29.69
2019-03-06T12:01:47.937Z,30.09
2019-03-06T12:04:10.236Z,30.44
2019-03-06T12:06:36.942Z,30.62
2019-03-06T12:09:03.526Z,30.60
2019-03-06T12:11:30.426Z,30.98
2019-03-06T12:13:57.337Z,29.88
2019-03-06T12:16:24.196Z,30.13
2019-03-06T12:18:50.821Z,29.61
2019-03-06T12:21:17.535Z,29.23
2019-03-06T12:23:44.156Z,29.49
2019-03-06T12:26:10.732Z,28.74
2019-03-06T12:28:37.325Z,29.17
2019-03-06T12:31:03.899Z,27.78
2019-03-06T12:33:30.475Z,27.49
2019-03-06T12:35:57.138Z,27.65
2019-03-06T12:38:23.707Z,27.74
2019-03-06T12:40:50.282Z,26.41
2019-03-06T12:43:16.871Z,26.45
2019-03-06T12:45:43.530Z,25.27
2019-03-06T12:48:10.126Z,26.15
2019-03-06T12:50:36.702Z,25.97
2019-03-06T12:53:03.307Z,23.96
2019-03-06T12:55:29.938Z,22.86
2019-03-06T12:57:59.594Z,20.16
2019-03-06T13:00:24.893Z,20.15
2019-03-06T13:02:51.757Z,19.29
2019-03-06T13:05:18.365Z,17.71
2019-03-06T13:07:44.974Z,17.61
2019-03-06T13:10:11.552Z,17.96
2019-03-06T13:12:38.390Z,16.22
2019-03-06T13:15:05.144Z,14.94
2019-03-06T13:17:31.781Z,14.58
2019-03-06T13:19:58.497Z,15.57
2019-03-06T13:22:25.241Z,12.88
2019-03-06T13:24:51.887Z,14.19
2019-03-06T13:27:18.476Z,13.71
2019-03-06T13:29:45.598Z,12.71
2019-03-06T13:32:12.467Z,12.46
2019-03-06T13:34:39.090Z,13.55
2019-03-06T13:37:05.793Z,12.76
2019-03-06T13:39:32.689Z,13.05
2019-03-06T13:41:59.361Z,13.72
2019-03-06T13:44:25.934Z,13.99
2019-03-06T13:46:53.083Z,13.61
2019-03-06T13:49:19.748Z,13.29
2019-03-06T13:51:46.341Z,9.54
2019-03-06T13:54:12.989Z,10.76
2019-03-06T13:56:39.599Z,11.33
2019-03-06T13:59:06.550Z,11.39
2019-03-06T14:01:33.227Z,9.85
2019-03-06T14:03:59.892Z,10.60
2019-03-06T14:06:26.665Z,10.97
2019-03-06T14:08:53.323Z,9.74
2019-03-06T14:11:19.968Z,11.40
2019-03-06T14:13:46.570Z,11.28
2019-03-06T14:16:13.148Z,10.86
2019-03-06T14:18:39.741Z,9.42
2019-03-06T14:21:06.346Z,8.19
2019-03-06T14:23:35.230Z,9.88
2019-03-06T14:26:01.352Z,9.84
2019-03-06T14:28:28.034Z,10.59
2019-03-06T14:30:54.649Z,10.52
2019-03-06T14:33:21.282Z,10.23
2019-03-06T14:35:48.068Z,10.02
2019-03-06T14:38:14.737Z,10.13
2019-03-06T14:40:41.320Z,10.07
2019-03-06T14:43:07.889Z,10.07
2019-03-06T14:45:34.505Z,9.75
2019-03-06T14:48:01.197Z,8.37
2019-03-06T14:50:27.866Z,8.94
2019-03-06T14:52:54.565Z,8.91
2019-03-06T14:55:21.141Z,7.51
2019-03-06T14:57:47.740Z,8.70
2019-03-06T15:00:14.310Z,9.14
2019-03-06T15:02:41.022Z,8.61
2019-03-06T15:05:07.671Z,8.84
2019-03-06T15:07:34.348Z,9.04
2019-03-06T15:10:00.950Z,8.92
2019-03-06T15:12:27.799Z,9.29
2019-03-06T15:14:54.422Z,9.38
2019-03-06T15:17:21.007Z,9.02
2019-03-06T15:19:47.647Z,9.40
2019-03-06T15:22:14.225Z,9.78
2019-03-06T15:24:41.815Z,10.02
2019-03-06T15:27:08.697Z,10.04
2019-03-06T15:29:35.648Z,10.47
2019-03-06T15:32:02.311Z,10.75
2019-03-06T15:34:29.029Z,11.08
2019-03-06T15:36:55.617Z,10.57
2019-03-06T15:39:22.195Z,11.62
2019-03-06T15:41:48.783Z,11.84
2019-03-06T15:44:15.364Z,11.71
2019-03-06T15:46:42.005Z,12.16
2019-03-06T15:49:08.779Z,12.44
2019-03-06T15:51:35.345Z,13.07
2019-03-06T15:54:01.924Z,13.71
2019-03-06T15:56:28.572Z,13.78
2019-03-06T15:58:55.153Z,14.80
2019-03-06T16:01:21.724Z,15.47
2019-03-06T16:03:48.322Z,16.13
2019-03-06T16:06:20.269Z,16.86
2019-03-06T16:08:43.373Z,17.50
2019-03-06T16:11:10.148Z,18.10
2019-03-06T16:13:36.753Z,18.60
2019-03-06T16:16:03.329Z,19.09
2019-03-06T16:18:30.004Z,19.66
2019-03-06T16:20:56.660Z,20.07
2019-03-06T16:23:25.570Z,20.41
2019-03-06T16:25:52.153Z,20.87
2019-03-06T16:28:18.880Z,21.28
2019-03-06T16:30:45.439Z,21.60
2019-03-06T16:33:12.167Z,21.94
2019-03-06T16:35:38.751Z,22.22
2019-03-06T16:38:05.406Z,22.54
2019-03-06T16:40:32.024Z,22.87
2019-03-06T16:42:58.600Z,22.70
2019-03-06T16:45:25.181Z,23.27
2019-03-06T16:47:51.838Z,23.59
2019-03-06T16:50:18.441Z,23.91
2019-03-06T16:52:45.013Z,24.43
2019-03-06T16:55:11.708Z,24.74
2019-03-06T16:57:38.567Z,24.97
2019-03-06T17:00:05.158Z,25.12
2019-03-06T17:02:31.725Z,25.62
2019-03-06T17:05:00.347Z,25.68
2019-03-06T17:07:26.984Z,25.99
2019-03-06T17:09:53.592Z,26.40
2019-03-06T17:12:20.159Z,26.64
2019-03-06T17:14:46.954Z,26.51
2019-03-06T17:17:13.540Z,26.65
2019-03-06T17:19:40.238Z,26.95
2019-03-06T17:22:06.808Z,27.39
2019-03-06T17:24:33.427Z,27.80
2019-03-06T17:27:00.085Z,27.69
2019-03-06T17:29:26.696Z,27.93
2019-03-06T17:31:54.370Z,28.19
2019-03-06T17:34:21.132Z,28.41
2019-03-06T17:36:47.783Z,28.62
2019-03-06T17:39:14.403Z,28.53
2019-03-06T17:41:41.056Z,28.80
2019-03-06T17:44:07.676Z,29.51
2019-03-06T17:46:34.259Z,29.35
2019-03-06T17:49:00.985Z,29.71
2019-03-06T17:51:27.953Z,29.44
2019-03-06T17:53:54.622Z,29.70
2019-03-06T17:56:21.199Z,30.30
2019-03-06T17:58:47.851Z,30.69
2019-03-06T18:01:15.095Z,30.42
2019-03-06T18:03:41.728Z,30.47
2019-03-06T18:06:08.323Z,30.72
2019-03-06T18:08:35.285Z,30.78
2019-03-06T18:11:03.036Z,30.83
2019-03-06T18:13:30.716Z,31.58
2019-03-06T18:15:57.394Z,31.42
2019-03-06T18:18:24.029Z,31.40
2019-03-06T18:20:50.669Z,31.74
2019-03-06T18:23:17.324Z,31.56
2019-03-06T18:25:44.273Z,32.21
2019-03-06T18:28:10.849Z,32.66
2019-03-06T18:30:37.839Z,31.98
2019-03-06T18:33:04.656Z,32.13
2019-03-06T18:35:31.233Z,32.15
2019-03-06T18:37:57.811Z,32.28
2019-03-06T18:40:24.667Z,32.66
2019-03-06T18:42:51.295Z,32.66
2019-03-06T18:45:18.355Z,32.36
2019-03-06T18:47:45.028Z,33.07
2019-03-06T18:50:11.733Z,32.38
2019-03-06T18:52:38.483Z,32.64
2019-03-06T18:55:05.168Z,32.35
2019-03-06T18:57:32.056Z,32.41
2019-03-06T18:59:58.724Z,32.41
2019-03-06T19:02:25.295Z,32.57
2019-03-06T19:04:52.335Z,32.27
2019-03-06T19:07:18.994Z,32.66
2019-03-06T19:09:45.679Z,32.51
2019-03-06T19:12:12.264Z,32.56
2019-03-06T19:14:39.034Z,32.67
2019-03-06T19:17:05.619Z,32.95
2019-03-06T19:19:32.270Z,33.44
2019-03-06T19:21:58.913Z,32.67
2019-03-06T19:24:25.600Z,34.26
2019-03-06T19:26:52.184Z,33.02
2019-03-06T19:29:18.833Z,32.99
2019-03-06T19:31:45.485Z,34.80
2019-03-06T19:34:12.059Z,34.61
2019-03-06T19:36:38.635Z,33.42
2019-03-06T19:39:05.316Z,33.46
2019-03-06T19:41:32.186Z,34.04
2019-03-06T19:43:58.866Z,33.59
2019-03-06T19:46:25.612Z,33.78
2019-03-06T19:48:52.190Z,34.03
2019-03-06T19:51:18.771Z,34.02
2019-03-06T19:53:45.349Z,34.24
2019-03-06T19:56:11.935Z,34.41
2019-03-06T19:58:38.509Z,34.52
2019-03-06T20:01:05.366Z,34.35
2019-03-06T20:03:32.337Z,34.12
2019-03-06T20:05:59.331Z,34.20
2019-03-06T20:08:26.060Z,34.19
2019-03-06T20:10:52.738Z,34.94
2019-03-06T20:13:19.380Z,35.64
2019-03-06T20:15:46.536Z,34.37
2019-03-06T20:18:13.236Z,35.16
2019-03-06T20:20:42.213Z,35.79
2019-03-06T20:23:08.883Z,36.02
2019-03-06T20:25:37.163Z,35.18
2019-03-06T20:28:03.909Z,35.43
2019-03-06T20:30:30.577Z,35.12
2019-03-06T20:32:57.302Z,35.37
2019-03-06T20:35:23.952Z,35.39
2019-03-06T20:37:50.531Z,35.35
2019-03-06T20:40:17.332Z,36.81
2019-03-06T20:42:43.982Z,36.58
2019-03-06T20:45:10.572Z,35.90
2019-03-06T20:47:37.218Z,35.79
2019-03-06T20:50:03.808Z,35.57
2019-03-06T20:52:30.473Z,36.91
2019-03-06T20:54:57.100Z,37.16
2019-03-06T20:57:23.749Z,36.15
2019-03-06T20:59:50.626Z,36.28
2019-03-06T21:02:17.195Z,37.18
2019-03-06T21:04:43.787Z,37.03
2019-03-06T21:07:10.419Z,36.20
2019-03-06T21:09:36.983Z,36.36
2019-03-06T21:12:03.559Z,36.80
2019-03-06T21:14:30.207Z,36.66
2019-03-06T21:16:56.789Z,36.58
2019-03-06T21:19:25.390Z,37.46
2019-03-06T21:21:51.737Z,36.72
2019-03-06T21:24:18.389Z,36.35
2019-03-06T21:26:45.057Z,36.83
2019-03-06T21:29:11.640Z,37.46
2019-03-06T21:31:38.212Z,36.79
2019-03-06T21:34:04.920Z,36.93
2019-03-06T21:36:31.676Z,37.59
2019-03-06T21:38:58.325Z,36.78
2019-03-06T21:41:24.980Z,36.88
2019-03-06T21:43:51.671Z,37.10
2019-03-06T21:46:18.383Z,37.12
2019-03-06T21:48:44.957Z,37.63
2019-03-06T21:51:11.536Z,37.35
2019-03-06T21:53:39.169Z,37.10
2019-03-06T21:56:05.937Z,37.45
2019-03-06T21:58:32.509Z,37.43
2019-03-06T22:00:59.086Z,37.69
2019-03-06T22:03:25.735Z,37.51
2019-03-06T22:05:52.396Z,37.59
2019-03-06T22:08:18.968Z,37.91
2019-03-06T22:10:45.560Z,37.03
2019-03-06T22:13:12.128Z,36.86
2019-03-06T22:15:38.746Z,37.43
2019-03-06T22:18:05.316Z,37.11
2019-03-06T22:20:32.015Z,38.15
2019-03-06T22:22:58.863Z,38.09
2019-03-06T22:25:25.444Z,37.36
2019-03-06T22:27:52.010Z,38.03
2019-03-06T22:30:18.586Z,37.70
2019-03-06T22:32:45.199Z,37.31
2019-03-06T22:35:11.863Z,37.25
2019-03-06T22:37:38.514Z,37.41
2019-03-06T22:40:05.097Z,37.16
2019-03-06T22:42:31.987Z,37.10
2019-03-06T22:44:58.556Z,37.45
2019-03-06T22:47:25.153Z,37.34
2019-03-06T22:49:51.721Z,37.25
2019-03-06T22:52:18.305Z,37.32
2019-03-06T22:54:44.881Z,37.03
2019-03-06T22:57:11.479Z,38.23
2019-03-06T22:59:38.446Z,37.82
2019-03-06T23:02:05.058Z,37.83
2019-03-06T23:04:31.699Z,37.56
2019-03-06T23:06:58.326Z,37.52
2019-03-06T23:09:24.903Z,38.35
2019-03-06T23:11:51.524Z,37.71
2019-03-06T23:14:18.090Z,37.64
2019-03-06T23:16:44.689Z,37.70
2019-03-06T23:19:11.316Z,37.54
2019-03-06T23:21:37.918Z,38.27
2019-03-06T23:24:04.486Z,38.14
2019-03-06T23:26:31.101Z,38.95
2019-03-06T23:28:57.664Z,38.08
2019-03-06T23:31:24.261Z,38.16
2019-03-06T23:33:50.917Z,38.00
2019-03-06T23:36:17.543Z,38.75
2019-03-06T23:38:44.114Z,38.22
2019-03-06T23:41:10.675Z,38.71
2019-03-06T23:43:37.250Z,37.95
2019-03-06T23:46:03.825Z,38.61
2019-03-06T23:48:30.405Z,39.41
2019-03-06T23:50:56.982Z,38.65
2019-03-06T23:53:23.731Z,38.73
2019-03-06T23:55:50.292Z,39.76
2019-03-06T23:58:16.870Z,39.52
